sensor_id;sensor_type;location;lat;lon;timestamp;P1;durP1;ratioP1;P2;durP2;ratioP2
9328;SDS011;4703;48.748;19.142;2022-12-28T00:01:26;22.43;;;15.10;;
9328;SDS011;4703;48.748;19.142;2022-12-28T00:03:59;20.10;;;13.40;;
9328;SDS011;4703;48.748;19.142;2022-12-28T00:06:29;21.03;;;13.70;;
9328;SDS011;4703;48.748;19.142;2022-12-28T00:08:58;17.47;;;12.43;;
9328;SDS011;4703;48.748;19.142;2022-12-28T00:11:25;23.53;;;16.03;;
9328;SDS011;4703;48.748;19.142;2022-12-28T00:13:57;66.37;;;41.10;;
9328;SDS011;4703;48.748;19.142;2022-12-28T00:18:55;17.60;;;13.63;;
9328;SDS011;4703;48.748;19.142;2022-12-28T00:21:25;16.87;;;11.53;;
9328;SDS011;4703;48.748;19.142;2022-12-28T00:23:54;14.93;;;11.47;;
9328;SDS011;4703;48.748;19.142;2022-12-28T00:26:24;16.80;;;11.97;;
9328;SDS011;4703;48.748;19.142;2022-12-28T00:28:53;15.77;;;10.93;;
9328;SDS011;4703;48.748;19.142;2022-12-28T00:31:28;15.30;;;11.53;;
9328;SDS011;4703;48.748;19.142;2022-12-28T00:33:55;16.00;;;11.13;;
9328;SDS011;4703;48.748;19.142;2022-12-28T00:36:23;20.17;;;13.17;;
9328;SDS011;4703;48.748;19.142;2022-12-28T00:39:10;16.27;;;12.00;;
9328;SDS011;4703;48.748;19.142;2022-12-28T00:41:37;20.90;;;11.77;;
9328;SDS011;4703;48.748;19.142;2022-12-28T00:44:04;15.00;;;11.50;;
9328;SDS011;4703;48.748;19.142;2022-12-28T00:46:31;18.70;;;13.67;;
9328;SDS011;4703;48.748;19.142;2022-12-28T00:48:58;18.10;;;12.00;;
9328;SDS011;4703;48.748;19.142;2022-12-28T00:51:25;17.80;;;13.50;;
9328;SDS011;4703;48.748;19.142;2022-12-28T00:53:52;18.60;;;12.87;;
9328;SDS011;4703;48.748;19.142;2022-12-28T00:56:20;132.43;;;91.60;;
9328;SDS011;4703;48.748;19.142;2022-12-28T00:58:48;203.57;;;132.30;;
9328;SDS011;4703;48.748;19.142;2022-12-28T01:01:17;63.37;;;42.80;;
9328;SDS011;4703;48.748;19.142;2022-12-28T01:03:47;24.40;;;15.87;;
9328;SDS011;4703;48.748;19.142;2022-12-28T01:06:15;18.40;;;12.77;;
9328;SDS011;4703;48.748;19.142;2022-12-28T01:08:44;21.87;;;13.60;;
9328;SDS011;4703;48.748;19.142;2022-12-28T01:11:13;18.90;;;11.47;;
9328;SDS011;4703;48.748;19.142;2022-12-28T01:13:46;17.20;;;13.07;;
9328;SDS011;4703;48.748;19.142;2022-12-28T01:16:16;25.57;;;13.50;;
9328;SDS011;4703;48.748;19.142;2022-12-28T01:18:47;18.63;;;12.77;;
9328;SDS011;4703;48.748;19.142;2022-12-28T01:21:19;19.40;;;12.93;;
9328;SDS011;4703;48.748;19.142;2022-12-28T01:23:51;19.80;;;13.73;;
9328;SDS011;4703;48.748;19.142;2022-12-28T01:26:21;22.63;;;14.17;;
9328;SDS011;4703;48.748;19.142;2022-12-28T01:28:49;19.17;;;14.07;;
9328;SDS011;4703;48.748;19.142;2022-12-28T01:31:17;19.70;;;14.13;;
9328;SDS011;4703;48.748;19.142;2022-12-28T01:33:45;18.93;;;14.47;;
9328;SDS011;4703;48.748;19.142;2022-12-28T01:36:17;24.27;;;16.37;;
9328;SDS011;4703;48.748;19.142;2022-12-28T01:38:47;19.97;;;14.13;;
9328;SDS011;4703;48.748;19.142;2022-12-28T01:41:19;19.50;;;13.87;;
9328;SDS011;4703;48.748;19.142;2022-12-28T01:51:59;19.40;;;13.53;;
9328;SDS011;4703;48.748;19.142;2022-12-28T01:54:34;22.80;;;14.63;;
9328;SDS011;4703;48.748;19.142;2022-12-28T01:57:07;19.93;;;12.77;;
9328;SDS011;4703;48.748;19.142;2022-12-28T01:59:36;22.87;;;15.43;;
9328;SDS011;4703;48.748;19.142;2022-12-28T02:02:08;15.53;;;11.63;;
9328;SDS011;4703;48.748;19.142;2022-12-28T02:04:37;20.00;;;13.20;;
9328;SDS011;4703;48.748;19.142;2022-12-28T02:07:04;27.30;;;15.43;;
9328;SDS011;4703;48.748;19.142;2022-12-28T02:09:38;16.67;;;11.80;;
9328;SDS011;4703;48.748;19.142;2022-12-28T02:12:07;21.20;;;12.27;;
9328;SDS011;4703;48.748;19.142;2022-12-28T02:14:40;24.13;;;14.40;;
9328;SDS011;4703;48.748;19.142;2022-12-28T02:17:09;24.83;;;14.80;;
9328;SDS011;4703;48.748;19.142;2022-12-28T02:19:42;20.00;;;13.10;;
9328;SDS011;4703;48.748;19.142;2022-12-28T02:22:35;16.97;;;12.57;;
9328;SDS011;4703;48.748;19.142;2022-12-28T02:30:55;19.07;;;13.03;;
9328;SDS011;4703;48.748;19.142;2022-12-28T02:33:35;26.83;;;15.23;;
9328;SDS011;4703;48.748;19.142;2022-12-28T02:36:31;24.57;;;14.57;;
9328;SDS011;4703;48.748;19.142;2022-12-28T02:39:06;22.20;;;14.17;;
9328;SDS011;4703;48.748;19.142;2022-12-28T02:41:38;22.83;;;13.90;;
9328;SDS011;4703;48.748;19.142;2022-12-28T02:44:06;18.77;;;12.77;;
9328;SDS011;4703;48.748;19.142;2022-12-28T02:46:33;21.43;;;12.60;;
9328;SDS011;4703;48.748;19.142;2022-12-28T02:49:27;16.77;;;12.50;;
9328;SDS011;4703;48.748;19.142;2022-12-28T03:04:59;24.03;;;15.33;;
9328;SDS011;4703;48.748;19.142;2022-12-28T03:08:06;17.53;;;12.53;;
9328;SDS011;4703;48.748;19.142;2022-12-28T03:10:48;24.10;;;14.83;;
9328;SDS011;4703;48.748;19.142;2022-12-28T03:16:35;22.90;;;14.30;;
9328;SDS011;4703;48.748;19.142;2022-12-28T03:19:25;24.10;;;14.93;;
9328;SDS011;4703;48.748;19.142;2022-12-28T03:22:33;18.40;;;12.60;;
9328;SDS011;4703;48.748;19.142;2022-12-28T03:25:22;20.07;;;13.33;;
9328;SDS011;4703;48.748;19.142;2022-12-28T03:28:11;21.07;;;12.47;;
9328;SDS011;4703;48.748;19.142;2022-12-28T03:31:02;20.13;;;13.87;;
9328;SDS011;4703;48.748;19.142;2022-12-28T03:33:38;22.80;;;13.80;;
9328;SDS011;4703;48.748;19.142;2022-12-28T03:36:27;20.50;;;13.87;;
9328;SDS011;4703;48.748;19.142;2022-12-28T03:39:30;23.00;;;14.77;;
9328;SDS011;4703;48.748;19.142;2022-12-28T03:45:09;23.40;;;15.60;;
9328;SDS011;4703;48.748;19.142;2022-12-28T03:48:04;21.70;;;13.80;;
9328;SDS011;4703;48.748;19.142;2022-12-28T03:50:36;18.73;;;13.20;;
9328;SDS011;4703;48.748;19.142;2022-12-28T03:53:05;23.40;;;14.57;;
9328;SDS011;4703;48.748;19.142;2022-12-28T03:55:34;19.13;;;13.07;;
9328;SDS011;4703;48.748;19.142;2022-12-28T03:58:05;19.30;;;13.77;;
9328;SDS011;4703;48.748;19.142;2022-12-28T04:00:32;20.37;;;12.33;;
9328;SDS011;4703;48.748;19.142;2022-12-28T04:02:59;18.80;;;11.83;;
9328;SDS011;4703;48.748;19.142;2022-12-28T04:05:26;17.73;;;11.97;;
9328;SDS011;4703;48.748;19.142;2022-12-28T04:07:53;18.57;;;11.60;;
9328;SDS011;4703;48.748;19.142;2022-12-28T04:10:20;17.07;;;11.37;;
9328;SDS011;4703;48.748;19.142;2022-12-28T04:12:47;18.37;;;11.50;;
9328;SDS011;4703;48.748;19.142;2022-12-28T04:15:19;16.30;;;12.33;;
9328;SDS011;4703;48.748;19.142;2022-12-28T04:17:46;17.63;;;12.23;;
9328;SDS011;4703;48.748;19.142;2022-12-28T04:20:13;17.17;;;12.00;;
9328;SDS011;4703;48.748;19.142;2022-12-28T04:22:40;19.10;;;12.10;;
9328;SDS011;4703;48.748;19.142;2022-12-28T04:25:07;15.50;;;10.73;;
9328;SDS011;4703;48.748;19.142;2022-12-28T04:27:34;16.30;;;10.20;;
9328;SDS011;4703;48.748;19.142;2022-12-28T04:30:01;14.17;;;11.00;;
9328;SDS011;4703;48.748;19.142;2022-12-28T04:32:29;15.80;;;10.70;;
9328;SDS011;4703;48.748;19.142;2022-12-28T04:34:56;10.23;;;8.40;;
9328;SDS011;4703;48.748;19.142;2022-12-28T04:37:23;13.53;;;10.10;;
9328;SDS011;4703;48.748;19.142;2022-12-28T04:39:50;13.60;;;9.43;;
9328;SDS011;4703;48.748;19.142;2022-12-28T04:42:22;15.47;;;10.37;;
9328;SDS011;4703;48.748;19.142;2022-12-28T04:44:50;12.83;;;10.17;;
9328;SDS011;4703;48.748;19.142;2022-12-28T04:47:18;11.50;;;8.87;;
9328;SDS011;4703;48.748;19.142;2022-12-28T04:49:45;15.67;;;11.03;;
9328;SDS011;4703;48.748;19.142;2022-12-28T04:52:12;15.03;;;10.70;;
9328;SDS011;4703;48.748;19.142;2022-12-28T04:54:39;16.17;;;10.80;;
9328;SDS011;4703;48.748;19.142;2022-12-28T04:57:06;13.10;;;9.40;;
9328;SDS011;4703;48.748;19.142;2022-12-28T04:59:33;12.73;;;10.37;;
9328;SDS011;4703;48.748;19.142;2022-12-28T05:02:00;15.77;;;10.57;;
9328;SDS011;4703;48.748;19.142;2022-12-28T05:04:27;14.40;;;9.87;;
9328;SDS011;4703;48.748;19.142;2022-12-28T05:06:54;13.43;;;10.40;;
9328;SDS011;4703;48.748;19.142;2022-12-28T05:09:21;15.07;;;11.33;;
9328;SDS011;4703;48.748;19.142;2022-12-28T05:11:48;12.80;;;9.77;;
9328;SDS011;4703;48.748;19.142;2022-12-28T05:14:16;19.23;;;11.00;;
9328;SDS011;4703;48.748;19.142;2022-12-28T05:16:43;14.60;;;9.70;;
9328;SDS011;4703;48.748;19.142;2022-12-28T05:19:09;13.33;;;10.53;;
9328;SDS011;4703;48.748;19.142;2022-12-28T05:21:38;15.60;;;10.80;;
9328;SDS011;4703;48.748;19.142;2022-12-28T05:24:05;15.27;;;10.20;;
9328;SDS011;4703;48.748;19.142;2022-12-28T05:26:33;11.93;;;9.43;;
9328;SDS011;4703;48.748;19.142;2022-12-28T05:29:00;10.80;;;8.63;;
9328;SDS011;4703;48.748;19.142;2022-12-28T05:31:27;15.00;;;9.53;;
9328;SDS011;4703;48.748;19.142;2022-12-28T05:33:54;12.70;;;9.13;;
9328;SDS011;4703;48.748;19.142;2022-12-28T05:36:23;12.60;;;9.83;;
9328;SDS011;4703;48.748;19.142;2022-12-28T05:38:52;9.70;;;8.60;;
9328;SDS011;4703;48.748;19.142;2022-12-28T05:41:21;10.97;;;8.87;;
9328;SDS011;4703;48.748;19.142;2022-12-28T05:43:50;14.17;;;9.53;;
9328;SDS011;4703;48.748;19.142;2022-12-28T05:46:22;14.83;;;12.23;;
9328;SDS011;4703;48.748;19.142;2022-12-28T05:48:55;18.03;;;12.63;;
9328;SDS011;4703;48.748;19.142;2022-12-28T05:51:24;18.70;;;12.90;;
9328;SDS011;4703;48.748;19.142;2022-12-28T05:53:54;15.70;;;11.77;;
9328;SDS011;4703;48.748;19.142;2022-12-28T05:56:24;13.23;;;10.20;;
9328;SDS011;4703;48.748;19.142;2022-12-28T05:58:55;13.23;;;10.73;;
9328;SDS011;4703;48.748;19.142;2022-12-28T06:01:26;14.53;;;11.93;;
9328;SDS011;4703;48.748;19.142;2022-12-28T06:03:57;12.90;;;9.57;;
9328;SDS011;4703;48.748;19.142;2022-12-28T06:06:30;15.07;;;10.67;;
9328;SDS011;4703;48.748;19.142;2022-12-28T06:08:58;14.03;;;9.50;;
9328;SDS011;4703;48.748;19.142;2022-12-28T06:11:28;13.73;;;9.90;;
9328;SDS011;4703;48.748;19.142;2022-12-28T06:13:56;13.67;;;8.80;;
9328;SDS011;4703;48.748;19.142;2022-12-28T06:16:25;13.03;;;9.30;;
9328;SDS011;4703;48.748;19.142;2022-12-28T06:18:57;11.13;;;9.17;;
9328;SDS011;4703;48.748;19.142;2022-12-28T06:21:26;13.50;;;10.33;;
9328;SDS011;4703;48.748;19.142;2022-12-28T06:23:56;12.40;;;9.27;;
9328;SDS011;4703;48.748;19.142;2022-12-28T06:26:25;17.00;;;9.07;;
9328;SDS011;4703;48.748;19.142;2022-12-28T06:28:54;10.13;;;8.90;;
9328;SDS011;4703;48.748;19.142;2022-12-28T06:31:27;13.90;;;10.50;;
9328;SDS011;4703;48.748;19.142;2022-12-28T06:33:58;9.20;;;8.27;;
9328;SDS011;4703;48.748;19.142;2022-12-28T06:36:27;11.47;;;9.03;;
9328;SDS011;4703;48.748;19.142;2022-12-28T06:39:04;12.03;;;9.63;;
9328;SDS011;4703;48.748;19.142;2022-12-28T06:41:32;14.93;;;10.23;;
9328;SDS011;4703;48.748;19.142;2022-12-28T06:43:59;15.57;;;9.80;;
9328;SDS011;4703;48.748;19.142;2022-12-28T06:46:27;13.17;;;9.70;;
9328;SDS011;4703;48.748;19.142;2022-12-28T06:48:55;14.60;;;10.03;;
9328;SDS011;4703;48.748;19.142;2022-12-28T06:51:24;11.27;;;10.10;;
9328;SDS011;4703;48.748;19.142;2022-12-28T06:53:57;13.90;;;9.77;;
9328;SDS011;4703;48.748;19.142;2022-12-28T06:56:25;17.17;;;11.73;;
9328;SDS011;4703;48.748;19.142;2022-12-28T06:58:54;10.80;;;8.60;;
9328;SDS011;4703;48.748;19.142;2022-12-28T07:01:30;12.70;;;9.93;;
9328;SDS011;4703;48.748;19.142;2022-12-28T07:04:03;52.80;;;36.27;;
9328;SDS011;4703;48.748;19.142;2022-12-28T07:06:37;87.33;;;57.67;;
9328;SDS011;4703;48.748;19.142;2022-12-28T07:09:10;114.87;;;69.77;;
9328;SDS011;4703;48.748;19.142;2022-12-28T07:11:39;64.40;;;42.40;;
9328;SDS011;4703;48.748;19.142;2022-12-28T07:14:07;19.20;;;14.30;;
9328;SDS011;4703;48.748;19.142;2022-12-28T07:16:34;15.67;;;10.43;;
9328;SDS011;4703;48.748;19.142;2022-12-28T07:19:00;15.20;;;11.40;;
9328;SDS011;4703;48.748;19.142;2022-12-28T07:21:30;9.83;;;8.43;;
9328;SDS011;4703;48.748;19.142;2022-12-28T07:24:00;12.20;;;10.30;;
9328;SDS011;4703;48.748;19.142;2022-12-28T07:26:28;16.83;;;11.73;;
9328;SDS011;4703;48.748;19.142;2022-12-28T07:28:57;17.70;;;12.03;;
9328;SDS011;4703;48.748;19.142;2022-12-28T07:31:31;15.87;;;13.40;;
9328;SDS011;4703;48.748;19.142;2022-12-28T07:34:09;15.83;;;11.80;;
9328;SDS011;4703;48.748;19.142;2022-12-28T07:36:36;14.87;;;11.20;;
9328;SDS011;4703;48.748;19.142;2022-12-28T07:39:03;15.17;;;12.03;;
9328;SDS011;4703;48.748;19.142;2022-12-28T07:41:30;17.00;;;12.43;;
9328;SDS011;4703;48.748;19.142;2022-12-28T07:43:59;19.83;;;13.83;;
9328;SDS011;4703;48.748;19.142;2022-12-28T07:46:28;19.60;;;13.57;;
9328;SDS011;4703;48.748;19.142;2022-12-28T07:48:59;18.43;;;13.73;;
9328;SDS011;4703;48.748;19.142;2022-12-28T07:51:30;16.77;;;13.90;;
9328;SDS011;4703;48.748;19.142;2022-12-28T07:54:01;19.50;;;14.27;;
9328;SDS011;4703;48.748;19.142;2022-12-28T07:56:29;15.53;;;10.83;;
9328;SDS011;4703;48.748;19.142;2022-12-28T07:58:58;17.60;;;12.83;;
9328;SDS011;4703;48.748;19.142;2022-12-28T08:01:28;13.77;;;10.90;;
9328;SDS011;4703;48.748;19.142;2022-12-28T08:03:59;55.30;;;36.27;;
9328;SDS011;4703;48.748;19.142;2022-12-28T08:06:29;42.30;;;29.37;;
9328;SDS011;4703;48.748;19.142;2022-12-28T08:09:00;18.00;;;14.73;;
9328;SDS011;4703;48.748;19.142;2022-12-28T08:11:30;15.03;;;12.43;;
9328;SDS011;4703;48.748;19.142;2022-12-28T08:13:59;15.30;;;12.80;;
9328;SDS011;4703;48.748;19.142;2022-12-28T08:16:28;13.73;;;12.23;;
9328;SDS011;4703;48.748;19.142;2022-12-28T08:18:58;19.53;;;11.67;;
9328;SDS011;4703;48.748;19.142;2022-12-28T08:21:29;13.37;;;10.27;;
9328;SDS011;4703;48.748;19.142;2022-12-28T08:24:02;14.70;;;11.60;;
9328;SDS011;4703;48.748;19.142;2022-12-28T08:26:34;16.87;;;12.10;;
9328;SDS011;4703;48.748;19.142;2022-12-28T08:29:04;13.17;;;11.33;;
9328;SDS011;4703;48.748;19.142;2022-12-28T08:31:40;14.83;;;10.53;;
9328;SDS011;4703;48.748;19.142;2022-12-28T08:34:13;11.73;;;9.50;;
9328;SDS011;4703;48.748;19.142;2022-12-28T08:36:45;11.73;;;9.43;;
9328;SDS011;4703;48.748;19.142;2022-12-28T08:39:12;14.90;;;10.73;;
9328;SDS011;4703;48.748;19.142;2022-12-28T08:41:39;13.30;;;10.33;;
9328;SDS011;4703;48.748;19.142;2022-12-28T08:44:06;11.90;;;10.10;;
9328;SDS011;4703;48.748;19.142;2022-12-28T08:46:34;15.00;;;10.90;;
9328;SDS011;4703;48.748;19.142;2022-12-28T08:49:02;10.27;;;9.23;;
9328;SDS011;4703;48.748;19.142;2022-12-28T08:51:38;13.83;;;9.00;;
9328;SDS011;4703;48.748;19.142;2022-12-28T08:54:09;10.40;;;8.40;;
9328;SDS011;4703;48.748;19.142;2022-12-28T08:56:39;10.53;;;9.30;;
9328;SDS011;4703;48.748;19.142;2022-12-28T08:59:10;10.17;;;7.40;;
9328;SDS011;4703;48.748;19.142;2022-12-28T09:01:41;10.93;;;9.80;;
9328;SDS011;4703;48.748;19.142;2022-12-28T09:04:15;13.33;;;9.40;;
9328;SDS011;4703;48.748;19.142;2022-12-28T09:06:45;11.60;;;8.90;;
9328;SDS011;4703;48.748;19.142;2022-12-28T09:09:14;10.87;;;8.43;;
9328;SDS011;4703;48.748;19.142;2022-12-28T09:11:43;11.87;;;8.60;;
9328;SDS011;4703;48.748;19.142;2022-12-28T09:14:18;10.27;;;7.77;;
9328;SDS011;4703;48.748;19.142;2022-12-28T09:16:51;14.33;;;10.57;;
9328;SDS011;4703;48.748;19.142;2022-12-28T09:19:19;53.43;;;38.33;;
9328;SDS011;4703;48.748;19.142;2022-12-28T09:21:47;11.07;;;9.73;;
9328;SDS011;4703;48.748;19.142;2022-12-28T09:24:18;10.23;;;8.20;;
9328;SDS011;4703;48.748;19.142;2022-12-28T09:26:45;9.57;;;8.37;;
9328;SDS011;4703;48.748;19.142;2022-12-28T09:29:12;9.63;;;7.97;;
9328;SDS011;4703;48.748;19.142;2022-12-28T09:31:40;10.57;;;8.30;;
9328;SDS011;4703;48.748;19.142;2022-12-28T09:34:09;9.00;;;8.10;;
9328;SDS011;4703;48.748;19.142;2022-12-28T09:36:58;17.30;;;13.67;;
9328;SDS011;4703;48.748;19.142;2022-12-28T09:39:25;14.70;;;11.07;;
9328;SDS011;4703;48.748;19.142;2022-12-28T09:41:54;9.50;;;8.15;;
9328;SDS011;4703;48.748;19.142;2022-12-28T09:47:34;14.83;;;10.00;;
9328;SDS011;4703;48.748;19.142;2022-12-28T09:56:34;10.57;;;8.87;;
9328;SDS011;4703;48.748;19.142;2022-12-28T09:59:04;9.23;;;7.93;;
9328;SDS011;4703;48.748;19.142;2022-12-28T10:01:33;9.27;;;8.20;;
9328;SDS011;4703;48.748;19.142;2022-12-28T10:04:03;9.90;;;8.30;;
9328;SDS011;4703;48.748;19.142;2022-12-28T10:06:31;8.40;;;7.40;;
9328;SDS011;4703;48.748;19.142;2022-12-28T10:09:03;9.60;;;8.27;;
9328;SDS011;4703;48.748;19.142;2022-12-28T10:11:41;9.53;;;7.30;;
9328;SDS011;4703;48.748;19.142;2022-12-28T10:14:19;24.73;;;19.63;;
9328;SDS011;4703;48.748;19.142;2022-12-28T10:16:53;40.70;;;29.90;;
9328;SDS011;4703;48.748;19.142;2022-12-28T10:19:25;37.60;;;27.37;;
9328;SDS011;4703;48.748;19.142;2022-12-28T10:22:00;31.70;;;24.67;;
9328;SDS011;4703;48.748;19.142;2022-12-28T10:24:31;17.07;;;12.80;;
9328;SDS011;4703;48.748;19.142;2022-12-28T10:27:00;10.90;;;9.60;;
9328;SDS011;4703;48.748;19.142;2022-12-28T10:29:33;10.17;;;8.60;;
9328;SDS011;4703;48.748;19.142;2022-12-28T10:32:04;10.30;;;7.40;;
9328;SDS011;4703;48.748;19.142;2022-12-28T10:34:52;11.87;;;9.00;;
9328;SDS011;4703;48.748;19.142;2022-12-28T10:37:22;9.57;;;8.40;;
9328;SDS011;4703;48.748;19.142;2022-12-28T10:39:54;9.00;;;8.10;;
9328;SDS011;4703;48.748;19.142;2022-12-28T10:42:31;9.27;;;8.03;;
9328;SDS011;4703;48.748;19.142;2022-12-28T10:45:15;10.57;;;8.07;;
9328;SDS011;4703;48.748;19.142;2022-12-28T10:47:45;12.73;;;8.47;;
9328;SDS011;4703;48.748;19.142;2022-12-28T10:53:19;11.63;;;8.30;;
9328;SDS011;4703;48.748;19.142;2022-12-28T10:58:39;10.10;;;8.47;;
9328;SDS011;4703;48.748;19.142;2022-12-28T11:03:39;10.87;;;8.03;;
9328;SDS011;4703;48.748;19.142;2022-12-28T11:06:30;8.77;;;7.40;;
9328;SDS011;4703;48.748;19.142;2022-12-28T11:09:17;15.37;;;10.73;;
9328;SDS011;4703;48.748;19.142;2022-12-28T11:11:53;8.43;;;7.67;;
9328;SDS011;4703;48.748;19.142;2022-12-28T11:19:50;10.77;;;8.03;;
9328;SDS011;4703;48.748;19.142;2022-12-28T11:22:21;11.03;;;8.87;;
9328;SDS011;4703;48.748;19.142;2022-12-28T11:24:52;10.27;;;8.87;;
9328;SDS011;4703;48.748;19.142;2022-12-28T11:27:20;9.80;;;8.37;;
9328;SDS011;4703;48.748;19.142;2022-12-28T11:29:49;11.23;;;8.87;;
9328;SDS011;4703;48.748;19.142;2022-12-28T11:32:34;26.40;;;17.73;;
9328;SDS011;4703;48.748;19.142;2022-12-28T11:35:07;17.70;;;15.80;;
9328;SDS011;4703;48.748;19.142;2022-12-28T11:37:47;12.70;;;11.10;;
9328;SDS011;4703;48.748;19.142;2022-12-28T11:41:02;10.50;;;8.33;;
9328;SDS011;4703;48.748;19.142;2022-12-28T11:45:58;9.40;;;8.07;;
9328;SDS011;4703;48.748;19.142;2022-12-28T11:51:16;10.03;;;8.67;;
9328;SDS011;4703;48.748;19.142;2022-12-28T11:57:03;9.10;;;7.40;;
9328;SDS011;4703;48.748;19.142;2022-12-28T11:59:31;8.97;;;7.10;;
9328;SDS011;4703;48.748;19.142;2022-12-28T12:02:00;8.10;;;7.07;;
9328;SDS011;4703;48.748;19.142;2022-12-28T12:04:49;9.73;;;8.50;;
9328;SDS011;4703;48.748;19.142;2022-12-28T12:07:20;18.50;;;15.07;;
9328;SDS011;4703;48.748;19.142;2022-12-28T12:12:47;8.53;;;7.40;;
9328;SDS011;4703;48.748;19.142;2022-12-28T12:15:18;8.93;;;7.13;;
9328;SDS011;4703;48.748;19.142;2022-12-28T12:18:01;9.13;;;6.57;;
9328;SDS011;4703;48.748;19.142;2022-12-28T12:23:05;7.00;;;6.30;;
9328;SDS011;4703;48.748;19.142;2022-12-28T12:25:41;8.63;;;7.03;;
9328;SDS011;4703;48.748;19.142;2022-12-28T12:31:07;7.33;;;6.73;;
9328;SDS011;4703;48.748;19.142;2022-12-28T12:33:43;10.23;;;7.17;;
9328;SDS011;4703;48.748;19.142;2022-12-28T12:38:55;9.30;;;8.27;;
9328;SDS011;4703;48.748;19.142;2022-12-28T12:41:46;8.80;;;7.90;;
9328;SDS011;4703;48.748;19.142;2022-12-28T12:48:05;12.23;;;10.23;;
9328;SDS011;4703;48.748;19.142;2022-12-28T12:51:26;24.90;;;16.27;;
9328;SDS011;4703;48.748;19.142;2022-12-28T13:03:43;12.20;;;8.60;;
9328;SDS011;4703;48.748;19.142;2022-12-28T13:06:15;10.00;;;8.37;;
9328;SDS011;4703;48.748;19.142;2022-12-28T13:08:53;10.67;;;8.63;;
9328;SDS011;4703;48.748;19.142;2022-12-28T13:11:30;10.50;;;9.50;;
9328;SDS011;4703;48.748;19.142;2022-12-28T13:14:02;9.37;;;8.40;;
9328;SDS011;4703;48.748;19.142;2022-12-28T13:16:31;17.70;;;10.57;;
9328;SDS011;4703;48.748;19.142;2022-12-28T13:19:02;15.53;;;11.03;;
9328;SDS011;4703;48.748;19.142;2022-12-28T13:21:39;12.40;;;10.30;;
9328;SDS011;4703;48.748;19.142;2022-12-28T13:26:57;12.20;;;9.63;;
9328;SDS011;4703;48.748;19.142;2022-12-28T13:29:26;13.10;;;10.03;;
9328;SDS011;4703;48.748;19.142;2022-12-28T13:31:59;14.00;;;11.93;;
9328;SDS011;4703;48.748;19.142;2022-12-28T13:34:27;13.07;;;10.27;;
9328;SDS011;4703;48.748;19.142;2022-12-28T13:37:01;12.30;;;10.50;;
9328;SDS011;4703;48.748;19.142;2022-12-28T13:39:38;13.30;;;10.23;;
9328;SDS011;4703;48.748;19.142;2022-12-28T13:42:12;11.73;;;10.50;;
9328;SDS011;4703;48.748;19.142;2022-12-28T13:45:00;14.20;;;11.50;;
9328;SDS011;4703;48.748;19.142;2022-12-28T13:50:23;13.23;;;11.83;;
9328;SDS011;4703;48.748;19.142;2022-12-28T13:52:57;15.83;;;11.30;;
9328;SDS011;4703;48.748;19.142;2022-12-28T13:55:34;13.10;;;10.13;;
9328;SDS011;4703;48.748;19.142;2022-12-28T13:58:16;12.50;;;10.17;;
9328;SDS011;4703;48.748;19.142;2022-12-28T14:00:49;19.60;;;17.50;;
9328;SDS011;4703;48.748;19.142;2022-12-28T14:03:18;16.20;;;13.07;;
9328;SDS011;4703;48.748;19.142;2022-12-28T14:05:48;13.63;;;12.20;;
9328;SDS011;4703;48.748;19.142;2022-12-28T14:08:21;12.57;;;11.37;;
9328;SDS011;4703;48.748;19.142;2022-12-28T14:10:48;12.70;;;10.97;;
9328;SDS011;4703;48.748;19.142;2022-12-28T14:13:16;13.30;;;9.20;;
9328;SDS011;4703;48.748;19.142;2022-12-28T14:15:45;12.10;;;10.00;;
9328;SDS011;4703;48.748;19.142;2022-12-28T14:18:16;12.10;;;10.00;;
9328;SDS011;4703;48.748;19.142;2022-12-28T14:20:48;12.73;;;10.57;;
9328;SDS011;4703;48.748;19.142;2022-12-28T14:23:21;13.90;;;10.47;;
9328;SDS011;4703;48.748;19.142;2022-12-28T14:25:51;12.03;;;10.70;;
9328;SDS011;4703;48.748;19.142;2022-12-28T14:28:34;12.80;;;9.97;;
9328;SDS011;4703;48.748;19.142;2022-12-28T14:31:07;13.60;;;10.00;;
9328;SDS011;4703;48.748;19.142;2022-12-28T14:33:57;12.10;;;9.87;;
9328;SDS011;4703;48.748;19.142;2022-12-28T14:36:29;10.60;;;9.13;;
9328;SDS011;4703;48.748;19.142;2022-12-28T14:42:00;12.87;;;10.50;;
9328;SDS011;4703;48.748;19.142;2022-12-28T14:44:32;16.57;;;10.17;;
9328;SDS011;4703;48.748;19.142;2022-12-28T14:50:22;14.97;;;11.20;;
9328;SDS011;4703;48.748;19.142;2022-12-28T14:53:01;14.77;;;11.00;;
9328;SDS011;4703;48.748;19.142;2022-12-28T14:55:35;13.27;;;11.20;;
9328;SDS011;4703;48.748;19.142;2022-12-28T14:58:37;12.27;;;10.97;;
9328;SDS011;4703;48.748;19.142;2022-12-28T15:01:22;12.83;;;10.77;;
9328;SDS011;4703;48.748;19.142;2022-12-28T15:03:54;12.50;;;10.43;;
9328;SDS011;4703;48.748;19.142;2022-12-28T15:06:27;15.30;;;12.13;;
9328;SDS011;4703;48.748;19.142;2022-12-28T15:08:56;12.50;;;10.53;;
9328;SDS011;4703;48.748;19.142;2022-12-28T15:11:26;12.97;;;11.00;;
9328;SDS011;4703;48.748;19.142;2022-12-28T15:13:55;15.13;;;11.97;;
9328;SDS011;4703;48.748;19.142;2022-12-28T15:16:22;16.70;;;12.43;;
9328;SDS011;4703;48.748;19.142;2022-12-28T15:18:50;13.97;;;11.77;;
9328;SDS011;4703;48.748;19.142;2022-12-28T15:21:19;15.70;;;12.90;;
9328;SDS011;4703;48.748;19.142;2022-12-28T15:23:48;17.73;;;13.50;;
9328;SDS011;4703;48.748;19.142;2022-12-28T15:26:17;15.20;;;11.63;;
9328;SDS011;4703;48.748;19.142;2022-12-28T15:28:44;13.07;;;11.63;;
9328;SDS011;4703;48.748;19.142;2022-12-28T15:31:13;12.87;;;10.83;;
9328;SDS011;4703;48.748;19.142;2022-12-28T15:33:43;15.50;;;11.10;;
9328;SDS011;4703;48.748;19.142;2022-12-28T15:36:13;16.50;;;12.40;;
9328;SDS011;4703;48.748;19.142;2022-12-28T15:38:46;15.47;;;12.77;;
9328;SDS011;4703;48.748;19.142;2022-12-28T15:41:14;14.73;;;12.40;;
9328;SDS011;4703;48.748;19.142;2022-12-28T15:44:02;17.40;;;14.00;;
9328;SDS011;4703;48.748;19.142;2022-12-28T15:46:30;17.07;;;13.73;;
9328;SDS011;4703;48.748;19.142;2022-12-28T15:48:57;16.27;;;14.17;;
9328;SDS011;4703;48.748;19.142;2022-12-28T15:51:27;16.83;;;15.03;;
9328;SDS011;4703;48.748;19.142;2022-12-28T15:53:54;21.00;;;15.30;;
9328;SDS011;4703;48.748;19.142;2022-12-28T15:56:21;19.53;;;17.00;;
9328;SDS011;4703;48.748;19.142;2022-12-28T15:58:51;20.77;;;16.87;;
9328;SDS011;4703;48.748;19.142;2022-12-28T16:01:20;18.53;;;15.57;;
9328;SDS011;4703;48.748;19.142;2022-12-28T16:03:49;20.30;;;16.60;;
9328;SDS011;4703;48.748;19.142;2022-12-28T16:06:17;20.20;;;16.20;;
9328;SDS011;4703;48.748;19.142;2022-12-28T16:08:45;23.17;;;17.37;;
9328;SDS011;4703;48.748;19.142;2022-12-28T16:11:16;18.90;;;15.00;;
9328;SDS011;4703;48.748;19.142;2022-12-28T16:13:58;19.10;;;15.73;;
9328;SDS011;4703;48.748;19.142;2022-12-28T16:16:28;24.40;;;16.23;;
9328;SDS011;4703;48.748;19.142;2022-12-28T16:18:59;19.23;;;14.67;;
9328;SDS011;4703;48.748;19.142;2022-12-28T16:21:27;18.47;;;14.63;;
9328;SDS011;4703;48.748;19.142;2022-12-28T16:23:55;19.23;;;14.67;;
9328;SDS011;4703;48.748;19.142;2022-12-28T16:26:25;15.93;;;14.13;;
9328;SDS011;4703;48.748;19.142;2022-12-28T16:28:52;22.20;;;16.23;;
9328;SDS011;4703;48.748;19.142;2022-12-28T16:33:55;16.60;;;14.07;;
9328;SDS011;4703;48.748;19.142;2022-12-28T16:36:25;19.60;;;13.63;;
9328;SDS011;4703;48.748;19.142;2022-12-28T16:38:53;18.30;;;14.20;;
9328;SDS011;4703;48.748;19.142;2022-12-28T16:41:20;25.17;;;16.63;;
9328;SDS011;4703;48.748;19.142;2022-12-28T16:43:48;24.27;;;16.30;;
9328;SDS011;4703;48.748;19.142;2022-12-28T16:46:15;23.30;;;16.50;;
9328;SDS011;4703;48.748;19.142;2022-12-28T16:48:43;19.33;;;15.00;;
9328;SDS011;4703;48.748;19.142;2022-12-28T16:51:11;19.17;;;15.30;;
9328;SDS011;4703;48.748;19.142;2022-12-28T16:53:38;18.60;;;15.07;;